Terminal Aerodrome Forecast
Issued by NWS Birmingham, AL

Home | Current Version | Previous Version | Text Only | Print | Product List | Glossary On
Versions: 1 2 3 4 5 6 7 8 9 10 11 12 13 14 15 16 17
000
FTUS44 KBMX 241732
TAFBHM
TAF
KBHM 241732Z 2418/2518 12012G17KT P6SM BKN026 BKN250
     FM241900 13013G19KT P6SM BKN035 BKN250
     FM250000 13009KT P6SM BKN060
     FM250800 15010KT P6SM OVC015=

USA.gov is the U.S. government's official web portal to all federal, state and local government web resources and services.